aviador You're here:

GCFV Decoded Metar

FUERTEVENTURA in SPAIN
Report Time2018-02-18 21:30:00
UTC Time2018-02-18 21:56:47
Flight Rules vfr VFR
Wind350° at 08 kt
W.Decomp.*RWY 01: 7.7 kt HW 2.1 kt LCW
W.Rank350° ranks 8
Current wind is below 350° avg. (10.4)
Visibility9999 m
Phenomena:N/A
Clouds:Few 025 Hf
Expected CloudBase > 2,000 ft AGL from Temp-Dew spread
CeilingNone
Temp16°C (ISA +1)
Dew Point11°C (72% RH)
AAT13.4°C
QNH1019 hPa
Density Alt184 ft
Elevation75 ft
Report Wrong Elevation
Raw Report
GCFV 182130Z 35008KT 9999 FEW025 16/11 Q1019=

Extra information for GCFV:More info

Metar Taf Metar & Taf Last 4 Metars F.Rules Stats Wind Profile Meteogram Temp Stats Airport Information Weather charts Add Link Nearby VenuesMetar ALERT Operation Metar Decoded Social comments